Time;durP1;ratioP1;P1;durP2;ratioP2;P2;SDS_P1;SDS_P2;PMS_P1;PMS_P2;Temp;Humidity;BMP_temperature;BMP_pressure;BME280_temperature;BME280_humidity;BME280_pressure;Samples;Min_cycle;Max_cycle;Signal;HPM_P1;HPM_P2
2021/04/25 00:02:08;;;;;;;13.07;7.70;;;10.90;99.90;;;;;;5014828;28;20303;-74
2021/04/25 00:04:34;;;;;;;13.70;8.17;;;10.90;99.90;;;;;;5014027;28;20202;-74
2021/04/25 00:07:01;;;;;;;13.33;7.83;;;10.80;99.90;;;;;;5014102;28;20301;-74
2021/04/25 00:09:27;;;;;;;13.27;7.70;;;10.80;99.90;;;;;;5014653;28;20367;-74
2021/04/25 00:11:54;;;;;;;13.00;7.87;;;10.70;99.90;;;;;;5023304;28;20738;-74
2021/04/25 00:14:21;;;;;;;11.83;7.30;;;10.50;99.90;;;;;;5012423;28;20257;-74
2021/04/25 00:16:48;;;;;;;15.73;8.20;;;10.60;99.90;;;;;;5014370;28;20235;-74
2021/04/25 00:19:15;;;;;;;13.57;7.93;;;10.60;99.90;;;;;;5014520;28;20662;-74
2021/04/25 00:21:42;;;;;;;15.73;8.17;;;10.50;99.90;;;;;;5013805;28;20244;-74
2021/04/25 00:24:08;;;;;;;13.90;8.03;;;10.60;99.90;;;;;;5013829;28;20717;-74
2021/04/25 00:26:35;;;;;;;12.27;7.97;;;10.60;99.90;;;;;;5013791;28;20321;-74
2021/04/25 00:29:01;;;;;;;12.50;7.60;;;10.50;99.90;;;;;;5014261;28;20781;-74
2021/04/25 00:31:27;;;;;;;14.87;8.23;;;10.40;99.90;;;;;;5013368;28;20207;-74
2021/04/25 00:33:54;;;;;;;11.93;7.43;;;10.50;99.90;;;;;;5015004;28;20297;-74
2021/04/25 00:36:21;;;;;;;11.87;6.93;;;10.40;99.90;;;;;;5014017;28;20304;-74
2021/04/25 00:38:47;;;;;;;11.17;7.20;;;10.40;99.90;;;;;;5015786;28;20288;-74
2021/04/25 00:41:14;;;;;;;13.30;7.90;;;10.30;99.90;;;;;;5013139;28;20293;-74
2021/04/25 00:43:40;;;;;;;13.30;7.50;;;10.20;99.90;;;;;;5013835;28;20738;-74
2021/04/25 00:46:07;;;;;;;12.27;7.33;;;10.20;99.90;;;;;;5014300;28;20224;-74
2021/04/25 00:48:33;;;;;;;14.73;7.73;;;10.20;99.90;;;;;;5013274;28;20216;-74
2021/04/25 00:51:00;;;;;;;11.53;7.20;;;10.20;99.90;;;;;;5013837;28;20239;-74
2021/04/25 00:53:28;;;;;;;11.20;7.20;;;10.10;99.90;;;;;;5017353;28;20276;-74
2021/04/25 00:55:54;;;;;;;12.37;7.43;;;10.00;99.90;;;;;;5028157;28;20277;-74
2021/04/25 00:58:22;;;;;;;11.10;7.20;;;9.90;99.90;;;;;;5013541;28;20285;-74
2021/04/25 01:00:48;;;;;;;13.30;7.70;;;9.90;99.90;;;;;;5013413;28;20216;-74
2021/04/25 01:03:18;;;;;;;13.60;7.60;;;9.80;99.90;;;;;;5012262;28;20279;-74
2021/04/25 01:05:45;;;;;;;13.23;7.60;;;9.80;99.90;;;;;;5013198;28;20248;-74
2021/04/25 01:08:11;;;;;;;10.27;7.33;;;9.70;99.90;;;;;;5009379;28;20201;-74
2021/04/25 01:10:39;;;;;;;12.07;7.43;;;9.70;99.90;;;;;;5012791;28;20298;-74
2021/04/25 01:13:05;;;;;;;12.23;6.77;;;9.60;99.90;;;;;;5014355;28;20312;-74
2021/04/25 01:15:32;;;;;;;12.63;7.57;;;9.60;99.90;;;;;;5012943;28;20206;-74
2021/04/25 01:17:58;;;;;;;18.20;8.33;;;9.50;99.90;;;;;;5012692;28;20205;-74
2021/04/25 01:20:26;;;;;;;12.83;8.10;;;9.40;99.90;;;;;;5013291;28;20298;-74
2021/04/25 01:22:53;;;;;;;14.00;8.30;;;9.40;99.90;;;;;;5013145;28;20321;-74
2021/04/25 01:25:22;;;;;;;12.43;7.47;;;9.40;99.90;;;;;;5015536;28;20228;-74
2021/04/25 01:27:49;;;;;;;11.87;7.50;;;9.40;99.90;;;;;;5013222;28;20573;-74
2021/04/25 01:30:18;;;;;;;12.93;7.63;;;9.30;99.90;;;;;;5015600;28;20201;-74
2021/04/25 01:32:45;;;;;;;15.47;7.70;;;9.30;99.90;;;;;;5012776;28;20286;-74
2021/04/25 01:35:15;;;;;;;14.23;7.70;;;9.20;99.90;;;;;;5013217;28;20231;-74
2021/04/25 01:37:42;;;;;;;13.67;7.97;;;9.10;99.90;;;;;;5012431;28;20587;-74
2021/04/25 01:40:11;;;;;;;13.53;7.73;;;9.10;99.90;;;;;;5016708;28;20232;-74
2021/04/25 01:42:37;;;;;;;12.17;7.90;;;9.10;99.90;;;;;;5012316;28;20200;-74
2021/04/25 01:45:05;;;;;;;11.93;7.37;;;9.10;99.90;;;;;;5012008;28;20298;-74
2021/04/25 01:47:32;;;;;;;13.20;8.10;;;9.00;99.90;;;;;;5021552;28;20263;-74
2021/04/25 01:49:58;;;;;;;11.17;7.63;;;9.00;99.90;;;;;;5016726;28;20670;-74
2021/04/25 01:52:24;;;;;;;13.83;7.67;;;8.90;99.90;;;;;;5013616;28;20295;-74
2021/04/25 01:54:51;;;;;;;16.43;8.20;;;8.90;99.90;;;;;;5012661;28;20302;-74
2021/04/25 01:57:18;;;;;;;12.87;7.63;;;8.90;99.90;;;;;;5012127;28;20292;-75
2021/04/25 01:59:45;;;;;;;13.00;8.13;;;8.90;99.90;;;;;;5015575;28;20228;-74
2021/04/25 02:02:11;;;;;;;15.40;7.60;;;8.90;99.90;;;;;;5011859;28;20242;-74
2021/04/25 02:04:38;;;;;;;13.67;8.23;;;8.90;99.90;;;;;;5012296;28;20321;-74
2021/04/25 02:07:04;;;;;;;13.37;7.80;;;8.90;99.90;;;;;;5015747;28;20306;-74
2021/04/25 02:09:30;;;;;;;12.47;7.63;;;8.90;99.90;;;;;;5012134;28;20298;-74
2021/04/25 02:11:57;;;;;;;14.17;7.93;;;8.90;99.90;;;;;;5011979;28;20303;-74
2021/04/25 02:14:26;;;;;;;12.47;8.00;;;8.90;99.90;;;;;;5024488;28;20362;-74
2021/04/25 02:16:52;;;;;;;12.33;7.60;;;8.80;99.90;;;;;;5014501;28;20202;-74
2021/04/25 02:19:19;;;;;;;13.90;7.70;;;8.80;99.90;;;;;;5012238;28;20232;-74
2021/04/25 02:21:45;;;;;;;12.73;7.40;;;8.80;99.90;;;;;;5016654;28;20280;-74
2021/04/25 02:24:11;;;;;;;12.53;7.67;;;8.80;99.90;;;;;;5018464;28;20359;-74
2021/04/25 02:26:38;;;;;;;12.90;7.70;;;8.80;99.90;;;;;;5011863;28;20327;-74
2021/04/25 02:29:04;;;;;;;13.80;7.97;;;8.70;99.90;;;;;;5010817;28;20295;-74
2021/04/25 02:31:32;;;;;;;13.57;7.80;;;8.70;99.90;;;;;;5011276;28;20740;-74
2021/04/25 02:33:58;;;;;;;14.33;7.87;;;8.60;99.90;;;;;;5012834;28;20209;-74
2021/04/25 02:36:25;;;;;;;13.70;8.07;;;8.60;99.90;;;;;;5010665;28;20203;-74
2021/04/25 02:38:51;;;;;;;12.00;7.10;;;8.60;99.90;;;;;;5010911;28;20309;-74
2021/04/25 02:41:17;;;;;;;11.80;7.50;;;8.70;99.90;;;;;;5010736;28;20302;-74
2021/04/25 02:43:44;;;;;;;14.03;8.00;;;8.70;99.90;;;;;;5010516;28;20208;-74
2021/04/25 02:46:10;;;;;;;13.43;7.63;;;8.70;99.90;;;;;;5011192;28;20313;-74
2021/04/25 02:48:37;;;;;;;13.30;8.13;;;8.70;99.90;;;;;;4993867;28;20198;-74
2021/04/25 02:51:04;;;;;;;13.83;7.90;;;8.70;99.90;;;;;;5011445;28;20319;-74
2021/04/25 02:53:31;;;;;;;12.60;8.27;;;8.70;99.90;;;;;;5017044;28;20206;-74
2021/04/25 02:55:57;;;;;;;11.73;8.33;;;8.70;99.90;;;;;;5006362;28;20307;-74
2021/04/25 02:58:24;;;;;;;14.13;8.57;;;8.70;99.90;;;;;;4993385;28;20218;-74
2021/04/25 03:00:50;;;;;;;17.93;8.50;;;8.70;99.90;;;;;;5011935;28;20261;-74
2021/04/25 03:03:17;;;;;;;13.20;7.80;;;8.70;99.90;;;;;;5010975;28;20294;-74
2021/04/25 03:05:44;;;;;;;15.50;8.67;;;8.70;99.90;;;;;;5010708;28;20226;-74
2021/04/25 03:08:11;;;;;;;13.97;8.33;;;8.70;99.90;;;;;;5011272;28;20292;-74
2021/04/25 03:10:37;;;;;;;13.03;8.30;;;8.60;99.90;;;;;;5012082;28;20287;-74
2021/04/25 03:13:04;;;;;;;12.60;8.23;;;8.70;99.90;;;;;;5012364;28;20283;-74
2021/04/25 03:15:30;;;;;;;14.20;8.53;;;8.70;99.90;;;;;;5010586;28;20282;-74
2021/04/25 03:17:57;;;;;;;13.20;8.03;;;8.60;99.90;;;;;;5011446;28;20303;-74
2021/04/25 03:20:23;;;;;;;12.83;7.87;;;8.50;99.90;;;;;;5013013;28;20305;-74
2021/04/25 03:22:51;;;;;;;14.47;9.00;;;8.40;99.90;;;;;;5011442;28;20308;-73
2021/04/25 03:25:18;;;;;;;16.07;8.77;;;8.50;99.90;;;;;;5012524;28;20773;-74
2021/04/25 03:27:44;;;;;;;15.33;8.80;;;8.50;99.90;;;;;;5016915;28;20293;-74
2021/04/25 03:30:13;;;;;;;15.27;8.37;;;8.50;99.90;;;;;;5015267;28;20208;-74
2021/04/25 03:32:40;;;;;;;14.50;8.93;;;8.40;99.90;;;;;;5022725;28;20292;-74
2021/04/25 03:35:09;;;;;;;13.97;8.90;;;8.30;99.90;;;;;;5018028;28;20203;-74
2021/04/25 03:37:36;;;;;;;14.70;8.73;;;8.40;99.90;;;;;;5031427;28;20243;-73
2021/04/25 03:40:07;;;;;;;13.30;8.80;;;8.40;99.90;;;;;;5015125;28;20240;-74
2021/04/25 03:42:34;;;;;;;15.10;8.80;;;8.40;99.90;;;;;;5014887;28;20653;-74
2021/04/25 03:45:00;;;;;;;13.17;8.90;;;8.30;99.90;;;;;;5015423;28;20294;-74
2021/04/25 03:47:27;;;;;;;14.97;8.53;;;8.30;99.90;;;;;;5014585;28;20291;-73
2021/04/25 03:49:53;;;;;;;15.27;9.47;;;8.40;99.90;;;;;;5015427;28;20224;-74
2021/04/25 03:52:20;;;;;;;15.63;8.93;;;8.30;99.90;;;;;;5015637;28;20296;-74
2021/04/25 03:54:46;;;;;;;15.90;8.50;;;8.30;99.90;;;;;;5015872;28;20278;-74
2021/04/25 03:57:14;;;;;;;17.63;9.00;;;8.40;99.90;;;;;;5017764;28;20291;-73
2021/04/25 03:59:40;;;;;;;16.03;9.20;;;8.30;99.90;;;;;;5014062;28;20302;-74
2021/04/25 04:02:06;;;;;;;13.03;8.17;;;8.20;99.90;;;;;;5014989;28;20711;-74
2021/04/25 04:04:33;;;;;;;13.07;8.70;;;8.20;99.90;;;;;;5014589;28;20229;-74
2021/04/25 04:06:59;;;;;;;12.73;8.33;;;8.10;99.90;;;;;;5014294;28;20313;-74
2021/04/25 04:09:26;;;;;;;14.77;8.37;;;8.10;99.90;;;;;;5021730;28;20280;-74
2021/04/25 04:11:52;;;;;;;13.37;8.67;;;8.10;99.90;;;;;;5019222;28;20212;-74
2021/04/25 04:14:19;;;;;;;13.57;8.87;;;8.00;99.90;;;;;;5026891;28;20323;-74
2021/04/25 04:16:45;;;;;;;16.60;8.87;;;7.80;99.90;;;;;;5013581;28;20285;-74
2021/04/25 04:19:12;;;;;;;13.77;8.80;;;7.80;99.90;;;;;;5014102;28;20237;-74
2021/04/25 04:21:38;;;;;;;12.97;8.00;;;7.70;99.90;;;;;;5016940;28;20290;-74
2021/04/25 04:24:05;;;;;;;12.10;7.97;;;7.80;99.90;;;;;;5021239;28;20298;-73
2021/04/25 04:26:32;;;;;;;17.67;9.20;;;7.80;99.90;;;;;;5014294;28;20331;-73
2021/04/25 04:28:59;;;;;;;16.27;8.47;;;7.70;99.90;;;;;;5014474;28;20295;-74
2021/04/25 04:31:27;;;;;;;14.70;8.60;;;7.80;99.90;;;;;;5014720;28;20239;-73
2021/04/25 04:33:53;;;;;;;16.20;8.83;;;7.80;99.90;;;;;;5013243;28;20290;-74
2021/04/25 04:36:20;;;;;;;13.00;8.33;;;7.70;99.90;;;;;;5013074;28;20308;-74
2021/04/25 04:38:46;;;;;;;15.80;8.97;;;7.70;99.90;;;;;;5013946;28;20238;-74
2021/04/25 04:41:13;;;;;;;16.20;8.87;;;7.70;99.90;;;;;;5015464;28;20233;-74
2021/04/25 04:43:39;;;;;;;14.70;8.63;;;7.60;99.90;;;;;;5014158;28;20305;-73
2021/04/25 04:46:05;;;;;;;14.70;8.03;;;7.60;99.90;;;;;;5013779;28;20257;-73
2021/04/25 04:48:33;;;;;;;15.80;8.87;;;7.50;99.90;;;;;;5012110;28;20233;-73
2021/04/25 04:50:59;;;;;;;16.93;9.27;;;7.40;99.90;;;;;;5013787;28;20202;-73
2021/04/25 04:53:25;;;;;;;15.87;9.03;;;7.30;99.90;;;;;;5013736;28;20305;-73
2021/04/25 04:55:52;;;;;;;16.50;8.60;;;7.30;99.90;;;;;;5013053;28;20292;-74
2021/04/25 04:58:19;;;;;;;15.43;8.80;;;7.20;99.90;;;;;;5014517;28;20236;-74
2021/04/25 05:00:45;;;;;;;15.47;8.53;;;7.10;99.90;;;;;;5012857;28;20575;-74
2021/04/25 05:03:11;;;;;;;16.47;8.83;;;7.10;99.90;;;;;;5013163;28;20246;-74
2021/04/25 05:05:39;;;;;;;14.13;8.53;;;7.10;99.90;;;;;;5013566;28;20300;-74
2021/04/25 05:08:05;;;;;;;15.63;8.67;;;7.00;99.90;;;;;;5013331;28;20293;-74
2021/04/25 05:10:31;;;;;;;14.90;8.90;;;7.00;99.90;;;;;;5012878;28;20232;-75
2021/04/25 05:12:58;;;;;;;14.97;8.30;;;7.10;99.90;;;;;;5015857;28;20363;-74
2021/04/25 05:15:24;;;;;;;13.87;8.53;;;7.10;99.90;;;;;;5014195;28;20596;-74
2021/04/25 05:17:50;;;;;;;14.17;8.63;;;7.20;99.90;;;;;;5013624;28;20292;-74
2021/04/25 05:20:17;;;;;;;14.00;9.03;;;7.10;99.90;;;;;;5012121;28;20202;-74
2021/04/25 05:22:44;;;;;;;14.50;8.73;;;7.10;99.90;;;;;;5025334;28;20292;-74
2021/04/25 05:25:11;;;;;;;15.43;8.80;;;7.10;99.90;;;;;;5013547;28;20259;-74
2021/04/25 05:27:38;;;;;;;13.23;8.83;;;7.20;99.90;;;;;;5013095;28;20313;-74
2021/04/25 05:30:05;;;;;;;16.03;8.63;;;7.20;99.90;;;;;;5012156;28;20240;-74
2021/04/25 05:32:31;;;;;;;16.77;8.90;;;7.30;99.90;;;;;;5005995;28;20289;-74
2021/04/25 05:34:58;;;;;;;15.90;8.77;;;7.30;99.90;;;;;;5014426;28;20207;-74
2021/04/25 05:37:24;;;;;;;14.90;9.40;;;7.40;99.90;;;;;;5012536;28;20285;-74
2021/04/25 05:39:51;;;;;;;12.23;8.23;;;7.60;99.90;;;;;;5013019;28;20232;-74
2021/04/25 05:42:18;;;;;;;14.73;8.63;;;7.60;99.90;;;;;;5012485;28;20691;-74
2021/04/25 05:44:44;;;;;;;15.27;9.27;;;7.70;99.90;;;;;;5012748;28;20288;-74
2021/04/25 05:47:10;;;;;;;16.70;8.77;;;7.80;99.90;;;;;;5012293;28;20229;-75
2021/04/25 05:49:37;;;;;;;14.63;8.40;;;8.00;99.90;;;;;;5012098;28;20287;-74
2021/04/25 05:52:03;;;;;;;15.77;8.37;;;8.20;99.90;;;;;;5028977;28;20285;-74
2021/04/25 05:54:30;;;;;;;16.57;8.83;;;8.40;99.90;;;;;;5016601;28;20243;-74
2021/04/25 05:56:57;;;;;;;13.83;8.87;;;8.60;99.90;;;;;;5012961;28;20225;-74
2021/04/25 05:59:24;;;;;;;14.83;8.83;;;8.80;99.90;;;;;;5011817;28;20244;-74
2021/04/25 06:01:50;;;;;;;16.97;9.37;;;8.90;99.90;;;;;;5013199;28;20287;-74
2021/04/25 06:04:17;;;;;;;15.00;8.57;;;9.20;99.90;;;;;;5012118;28;20294;-74
2021/04/25 06:06:43;;;;;;;15.13;8.73;;;9.40;99.90;;;;;;5012800;28;20319;-74
2021/04/25 06:09:10;;;;;;;12.60;8.57;;;9.80;99.90;;;;;;5012815;28;20204;-74
2021/04/25 06:11:36;;;;;;;14.10;8.90;;;10.10;99.90;;;;;;5012357;28;20297;-74
2021/04/25 06:14:05;;;;;;;12.50;8.37;;;10.90;99.90;;;;;;5011793;28;20266;-74
2021/04/25 06:16:31;;;;;;;13.00;8.60;;;11.00;99.90;;;;;;5012641;28;20200;-75
2021/04/25 06:18:58;;;;;;;14.70;8.17;;;11.10;99.90;;;;;;5012568;28;20300;-74
2021/04/25 06:21:26;;;;;;;14.87;8.57;;;11.80;99.90;;;;;;5012980;28;20199;-75
2021/04/25 06:23:52;;;;;;;14.47;8.83;;;12.20;99.90;;;;;;5012051;28;20205;-75
2021/04/25 06:26:19;;;;;;;13.13;8.57;;;12.40;99.90;;;;;;5012490;28;20319;-74
2021/04/25 06:28:45;;;;;;;13.17;8.43;;;12.30;99.90;;;;;;5011844;28;20686;-74
2021/04/25 06:31:13;;;;;;;13.10;8.23;;;12.70;99.90;;;;;;5011777;28;20288;-74
2021/04/25 06:33:39;;;;;;;12.73;8.20;;;12.80;99.90;;;;;;5011820;28;20681;-74
2021/04/25 06:36:06;;;;;;;13.03;8.30;;;12.90;99.90;;;;;;5011868;28;20733;-74
2021/04/25 06:38:33;;;;;;;14.17;9.17;;;13.50;99.90;;;;;;5011502;28;20205;-75
2021/04/25 06:40:59;;;;;;;13.97;8.73;;;12.50;99.90;;;;;;5012026;28;20288;-74
2021/04/25 06:43:25;;;;;;;10.90;8.13;;;12.70;99.90;;;;;;5011505;28;20205;-75
2021/04/25 06:45:53;;;;;;;14.33;9.20;;;13.00;99.90;;;;;;5012221;28;20985;-75
2021/04/25 06:48:20;;;;;;;17.27;9.03;;;13.20;99.90;;;;;;5011426;28;20205;-74
2021/04/25 06:50:48;;;;;;;13.70;8.23;;;13.10;99.90;;;;;;5008675;28;20231;-75
2021/04/25 06:53:15;;;;;;;11.50;8.30;;;13.40;99.90;;;;;;5011182;28;20688;-74
2021/04/25 06:55:41;;;;;;;11.10;8.17;;;13.30;99.90;;;;;;5012239;28;20251;-75
2021/04/25 06:58:08;;;;;;;11.73;8.83;;;13.70;99.90;;;;;;5016228;28;20320;-75
2021/04/25 07:00:34;;;;;;;12.20;8.33;;;13.60;99.90;;;;;;5011344;28;20351;-74
2021/04/25 07:03:01;;;;;;;11.47;8.90;;;13.90;99.90;;;;;;5011765;28;20208;-75
2021/04/25 07:05:28;;;;;;;14.40;8.60;;;14.10;99.90;;;;;;5011162;28;20231;-74
2021/04/25 07:07:57;;;;;;;13.37;8.43;;;13.80;99.90;;;;;;5010710;28;20296;-75
2021/04/25 07:10:23;;;;;;;12.13;8.77;;;14.10;99.90;;;;;;5009156;28;20327;-75
2021/04/25 07:12:50;;;;;;;14.33;8.63;;;14.40;99.90;;;;;;5014944;28;20307;-75
2021/04/25 07:15:16;;;;;;;11.77;8.30;;;14.70;99.90;;;;;;5007978;28;20905;-74
2021/04/25 07:17:43;;;;;;;13.07;8.60;;;15.20;99.90;;;;;;5010582;28;20197;-75
2021/04/25 07:20:11;;;;;;;12.60;8.33;;;15.40;99.90;;;;;;5013196;28;20291;-74
2021/04/25 07:22:39;;;;;;;11.93;8.57;;;14.80;99.90;;;;;;5011651;28;20259;-74
2021/04/25 07:25:08;;;;;;;12.10;8.63;;;14.70;99.90;;;;;;5012348;28;20288;-74
2021/04/25 07:27:34;;;;;;;11.97;8.40;;;15.30;99.90;;;;;;5011115;28;20646;-74
2021/04/25 07:30:00;;;;;;;12.07;8.37;;;14.70;99.90;;;;;;5011165;28;20649;-74
2021/04/25 07:32:27;;;;;;;10.32;8.00;;;15.30;99.90;;;;;;5011583;28;20296;-74
2021/04/25 07:34:53;;;;;;;11.43;8.00;;;15.80;99.90;;;;;;5010519;28;20235;-75
2021/04/25 07:37:25;;;;;;;11.43;8.77;;;15.00;99.90;;;;;;5012950;28;20290;-73
2021/04/25 07:40:06;;;;;;;13.55;8.55;;;15.50;99.90;;;;;;5010321;28;20339;-74
2021/04/25 07:45:30;;;;;;;11.03;8.30;;;15.10;99.90;;;;;;4903701;29;21210;-74
2021/04/25 07:47:56;;;;;;;11.88;8.85;;;16.00;99.90;;;;;;4929091;29;20722;-73
2021/04/25 07:50:33;;;;;;;11.30;8.05;;;15.40;99.90;;;;;;4929696;29;20685;-74
2021/04/25 07:53:01;;;;;;;11.70;8.60;;;16.10;99.90;;;;;;4929509;29;20211;-74
2021/04/25 07:55:29;;;;;;;11.00;7.80;;;15.70;99.90;;;;;;4926674;29;20200;-76
2021/04/25 07:57:55;;;;;;;11.50;8.02;;;15.70;99.90;;;;;;4931468;29;20287;-74
2021/04/25 08:00:23;;;;;;;13.52;8.23;;;16.00;99.90;;;;;;4932193;29;20303;-75
2021/04/25 08:02:49;;;;;;;11.40;7.63;;;16.30;99.90;;;;;;4929754;29;20290;-74
2021/04/25 08:05:16;;;;;;;9.50;7.60;;;15.90;99.90;;;;;;4929812;29;20211;-74
2021/04/25 08:07:42;;;;;;;11.48;7.70;;;15.50;99.90;;;;;;4930138;29;20234;-73
2021/04/25 08:10:09;;;;;;;13.43;8.17;;;16.10;99.90;;;;;;4928363;29;20684;-74
2021/04/25 08:12:36;;;;;;;11.17;7.40;;;16.10;99.90;;;;;;4934145;29;20826;-74
2021/04/25 08:15:04;;;;;;;10.30;7.70;;;16.20;99.90;;;;;;4932740;29;20315;-74
2021/04/25 08:17:30;;;;;;;12.23;8.47;;;16.30;99.90;;;;;;4931468;28;20351;-74
2021/04/25 08:19:57;;;;;;;10.67;8.00;;;16.60;99.90;;;;;;4933943;29;20283;-74
2021/04/25 08:22:23;;;;;;;10.30;7.63;;;17.00;99.90;;;;;;4976452;28;20288;-75
2021/04/25 08:24:50;;;;;;;10.85;8.05;;;16.60;99.90;;;;;;5012941;28;20194;-75
2021/04/25 08:27:17;;;;;;;13.18;8.60;;;17.00;99.90;;;;;;5017109;28;20316;-75
2021/04/25 08:29:45;;;;;;;12.80;7.57;;;17.80;99.90;;;;;;5012099;28;20796;-74
2021/04/25 08:32:28;;;;;;;13.35;7.82;;;17.60;99.90;;;;;;5015086;28;20248;-75
2021/04/25 08:34:55;;;;;;;9.73;7.70;;;17.90;99.90;;;;;;4995196;28;20641;-75
2021/04/25 08:37:21;;;;;;;11.60;7.97;;;17.10;99.90;;;;;;5010741;28;20228;-74
2021/04/25 08:39:48;;;;;;;11.73;7.77;;;17.50;99.90;;;;;;5012541;28;20243;-75
2021/04/25 08:42:15;;;;;;;11.10;8.02;;;18.00;99.90;;;;;;5014927;28;20681;-75
2021/04/25 08:44:43;;;;;;;9.57;7.53;;;19.00;99.70;;;;;;5012592;28;20377;-75
2021/04/25 08:47:12;;;;;;;11.45;8.07;;;18.70;99.20;;;;;;5013467;28;20213;-75
2021/04/25 08:49:41;;;;;;;10.93;8.30;;;18.90;99.20;;;;;;5011466;28;20228;-75
2021/04/25 08:52:07;;;;;;;11.13;7.93;;;18.20;99.90;;;;;;5015501;28;20671;-75
2021/04/25 08:54:34;;;;;;;13.07;8.48;;;18.50;99.20;;;;;;5012676;28;20288;-73
2021/04/25 08:57:00;;;;;;;11.07;7.68;;;18.70;98.50;;;;;;5014267;28;20288;-73
2021/04/25 08:59:27;;;;;;;10.57;7.50;;;18.70;99.90;;;;;;5012197;28;20675;-74
2021/04/25 09:01:53;;;;;;;10.43;7.82;;;18.70;99.90;;;;;;5015287;28;20213;-74
2021/04/25 09:04:21;;;;;;;13.00;8.02;;;18.80;99.60;;;;;;5011869;28;20303;-73
2021/04/25 09:07:14;;;;;;;12.52;8.50;;;18.40;99.60;;;;;;5012522;28;20642;-74
2021/04/25 09:09:49;;;;;;;10.18;7.68;;;18.20;99.90;;;;;;5018947;28;20208;-73
2021/04/25 09:12:31;;;;;;;10.57;8.00;;;18.70;98.80;;;;;;5016084;28;20225;-74
2021/04/25 09:14:58;;;;;;;12.68;8.80;;;18.20;99.90;;;;;;5009264;28;20774;-73
2021/04/25 09:17:24;;;;;;;11.23;8.20;;;18.50;99.90;;;;;;5018061;28;20288;-73
2021/04/25 09:19:54;;;;;;;13.32;8.40;;;19.10;99.50;;;;;;5024830;28;20228;-73
2021/04/25 09:22:22;;;;;;;11.48;8.25;;;18.70;98.00;;;;;;5015904;28;20231;-72
2021/04/25 09:24:49;;;;;;;11.63;7.88;;;18.90;96.70;;;;;;5011905;28;20215;-72
2021/04/25 09:27:26;;;;;;;14.00;7.78;;;19.70;96.90;;;;;;5018823;28;20235;-72
2021/04/25 09:29:57;;;;;;;13.13;8.10;;;19.50;96.20;;;;;;5011911;28;20288;-73
2021/04/25 09:32:25;;;;;;;11.85;7.70;;;19.80;96.40;;;;;;5013663;28;20197;-73
2021/04/25 09:35:08;;;;;;;12.25;7.95;;;20.10;95.80;;;;;;5012437;28;20208;-73
2021/04/25 09:37:35;;;;;;;12.48;7.65;;;20.60;94.90;;;;;;5014034;28;20205;-73
2021/04/25 09:40:06;;;;;;;14.65;10.48;;;20.60;94.00;;;;;;5012232;28;20246;-73
2021/04/25 09:42:32;;;;;;;17.70;12.77;;;21.20;93.70;;;;;;5014080;28;20209;-73
2021/04/25 09:44:59;;;;;;;13.50;7.72;;;21.50;91.00;;;;;;5014646;28;20201;-72
2021/04/25 09:47:34;;;;;;;14.30;8.90;;;21.10;92.70;;;;;;5014266;28;20311;-72
2021/04/25 09:50:01;;;;;;;10.43;7.93;;;21.50;89.40;;;;;;5014189;28;20232;-73
2021/04/25 09:52:37;;;;;;;13.20;7.50;;;20.70;90.20;;;;;;5018066;28;20795;-73
2021/04/25 09:55:22;;;;;;;11.90;7.68;;;21.30;90.50;;;;;;5010651;28;20197;-73
2021/04/25 09:57:50;;;;;;;13.32;8.13;;;20.90;88.00;;;;;;5015581;28;20205;-74
2021/04/25 10:00:17;;;;;;;9.63;6.47;;;20.30;86.60;;;;;;5011488;28;20221;-73
2021/04/25 10:02:58;;;;;;;12.07;8.00;;;20.30;88.30;;;;;;5021167;28;20232;-73
2021/04/25 10:05:26;;;;;;;16.05;12.75;;;20.30;86.90;;;;;;5018482;28;20204;-75
2021/04/25 10:07:53;;;;;;;11.25;8.23;;;20.70;85.30;;;;;;5011416;28;21045;-73
2021/04/25 10:10:21;;;;;;;14.55;9.40;;;20.60;86.80;;;;;;5017339;28;20224;-74
2021/04/25 10:12:48;;;;;;;13.85;8.32;;;21.00;86.50;;;;;;5021029;28;20252;-74
2021/04/25 10:15:15;;;;;;;15.95;11.55;;;21.10;88.20;;;;;;5024941;28;20248;-74
2021/04/25 10:17:42;;;;;;;12.23;7.85;;;20.90;85.70;;;;;;5011765;28;20201;-75
2021/04/25 10:20:11;;;;;;;12.55;7.47;;;20.50;86.00;;;;;;5018851;28;20197;-75
2021/04/25 10:22:41;;;;;;;10.57;7.90;;;20.80;87.40;;;;;;5014723;28;20244;-74
2021/04/25 10:25:11;;;;;;;14.75;9.85;;;20.80;86.10;;;;;;5012794;28;20208;-75
2021/04/25 10:27:40;;;;;;;16.17;10.52;;;21.00;85.60;;;;;;5011686;28;20275;-74
2021/04/25 10:30:10;;;;;;;18.73;11.23;;;20.30;86.00;;;;;;5020802;28;20201;-75
2021/04/25 10:32:36;;;;;;;12.07;8.25;;;20.50;86.70;;;;;;5014841;28;20205;-75
2021/04/25 10:35:14;;;;;;;11.80;7.80;;;21.00;84.40;;;;;;5016194;28;20207;-74
2021/04/25 10:37:42;;;;;;;10.65;7.50;;;21.00;85.70;;;;;;5017100;28;20285;-75
2021/04/25 10:40:26;;;;;;;11.23;7.20;;;21.70;83.30;;;;;;5008639;28;20197;-74
2021/04/25 10:42:55;;;;;;;10.10;7.63;;;21.40;84.50;;;;;;5008455;28;20229;-75
2021/04/25 10:45:30;;;;;;;10.88;7.35;;;21.10;87.60;;;;;;5017733;28;20278;-75
2021/04/25 10:48:31;;;;;;;12.02;7.25;;;21.50;84.80;;;;;;5020026;28;20382;-74
2021/04/25 10:51:05;;;;;;;9.23;6.70;;;21.40;85.20;;;;;;5014556;28;20605;-74
2021/04/25 10:53:36;;;;;;;11.70;7.47;;;21.50;87.20;;;;;;5010912;28;20585;-74
2021/04/25 10:56:27;;;;;;;12.70;7.65;;;20.70;85.40;;;;;;5014590;28;20673;-74
2021/04/25 10:59:24;;;;;;;11.90;7.70;;;20.90;86.70;;;;;;4999489;28;20343;-74
2021/04/25 11:01:51;;;;;;;12.77;6.90;;;21.20;87.00;;;;;;4914631;28;20214;-75
2021/04/25 11:04:56;;;;;;;11.52;7.38;;;20.80;85.00;;;;;;4916855;29;20299;-74
2021/04/25 11:07:41;;;;;;;12.18;7.40;;;20.70;86.60;;;;;;4918626;29;20224;-74
2021/04/25 11:10:10;;;;;;;10.90;7.65;;;20.60;87.10;;;;;;4922217;29;20714;-75
2021/04/25 11:12:42;;;;;;;12.02;7.65;;;21.50;85.70;;;;;;4908769;29;20217;-75
2021/04/25 11:15:10;;;;;;;13.88;7.93;;;21.20;85.60;;;;;;4914374;29;20319;-75
2021/04/25 11:17:36;;;;;;;11.77;8.80;;;20.90;86.50;;;;;;4920777;29;20631;-75
2021/04/25 11:20:31;;;;;;;10.15;6.93;;;21.30;86.50;;;;;;4913424;29;20295;-75
2021/04/25 11:22:58;;;;;;;9.95;6.60;;;22.30;84.60;;;;;;4915403;28;20215;-75
2021/04/25 11:25:32;;;;;;;9.85;6.63;;;21.90;80.30;;;;;;4914275;29;20291;-75
2021/04/25 11:27:58;;;;;;;11.52;6.82;;;21.10;83.40;;;;;;4920570;29;20312;-75
2021/04/25 11:30:35;;;;;;;9.00;6.32;;;21.30;84.50;;;;;;4914231;29;20335;-75
2021/04/25 11:33:30;;;;;;;9.85;6.15;;;21.40;83.60;;;;;;4916989;29;20290;-74
2021/04/25 11:36:33;;;;;;;9.93;6.32;;;21.70;85.50;;;;;;4912178;29;20264;-74
2021/04/25 11:38:59;;;;;;;8.95;5.93;;;21.90;83.20;;;;;;4980793;28;20752;-74
2021/04/25 11:41:27;;;;;;;9.45;5.78;;;21.30;80.60;;;;;;5020827;28;20201;-74
2021/04/25 11:43:54;;;;;;;7.90;5.75;;;21.30;80.90;;;;;;5010424;28;20608;-74
2021/04/25 11:46:34;;;;;;;10.38;6.00;;;21.60;82.70;;;;;;5010190;28;20320;-74
2021/04/25 11:49:01;;;;;;;9.70;6.25;;;21.40;80.70;;;;;;5014631;28;20215;-74
2021/04/25 11:51:29;;;;;;;10.55;6.28;;;20.70;81.70;;;;;;5015326;28;20201;-74
2021/04/25 11:53:55;;;;;;;13.18;5.80;;;20.80;81.80;;;;;;5015785;28;20595;-74
2021/04/25 11:56:23;;;;;;;10.55;6.20;;;20.70;82.10;;;;;;5013549;28;20291;-74
2021/04/25 11:58:50;;;;;;;9.98;5.80;;;20.50;81.90;;;;;;5018856;28;20292;-74
2021/04/25 12:01:23;;;;;;;8.68;5.63;;;20.50;81.70;;;;;;4998551;28;20291;-74
2021/04/25 12:03:50;;;;;;;9.88;5.75;;;20.50;83.20;;;;;;5015590;28;20196;-74
2021/04/25 12:06:17;;;;;;;9.43;5.60;;;20.80;84.60;;;;;;5012195;28;20307;-74
2021/04/25 12:08:51;;;;;;;10.25;5.95;;;20.20;81.60;;;;;;5013939;28;20284;-74
2021/04/25 12:11:26;;;;;;;8.63;5.80;;;20.50;80.70;;;;;;5013782;28;20205;-74
2021/04/25 12:13:53;;;;;;;8.88;5.57;;;20.90;79.50;;;;;;5012423;28;20315;-74
2021/04/25 12:16:21;;;;;;;6.75;5.00;;;22.20;79.50;;;;;;5012417;28;20243;-75
2021/04/25 12:18:50;;;;;;;10.52;5.95;;;21.80;77.20;;;;;;5013852;28;20292;-74
2021/04/25 12:21:18;;;;;;;7.75;5.35;;;22.00;76.10;;;;;;5013489;28;20954;-74
2021/04/25 12:23:48;;;;;;;8.00;5.80;;;21.50;78.60;;;;;;5012918;28;20292;-74
2021/04/25 12:26:16;;;;;;;9.00;5.22;;;21.10;80.50;;;;;;5015222;28;20671;-74
2021/04/25 12:28:45;;;;;;;8.70;5.03;;;21.30;79.50;;;;;;5014883;28;20332;-74
2021/04/25 12:31:16;;;;;;;7.88;5.25;;;21.80;77.80;;;;;;5016267;28;20745;-74
2021/04/25 12:33:44;;;;;;;7.82;5.93;;;21.60;76.70;;;;;;5012235;28;20197;-72
2021/04/25 12:36:12;;;;;;;11.40;5.63;;;21.10;81.60;;;;;;5015590;28;20289;-73
2021/04/25 12:38:40;;;;;;;10.45;6.38;;;21.60;81.60;;;;;;5012938;28;20292;-73
2021/04/25 12:41:09;;;;;;;6.78;5.15;;;21.30;80.20;;;;;;5012492;28;20684;-73
2021/04/25 12:43:38;;;;;;;10.95;5.13;;;21.20;81.40;;;;;;5011938;28;20228;-74
2021/04/25 12:46:14;;;;;;;9.68;5.07;;;21.10;80.90;;;;;;5013545;28;20577;-73
2021/04/25 12:48:42;;;;;;;7.15;5.18;;;20.60;85.10;;;;;;5014348;28;20262;-73
2021/04/25 12:51:18;;;;;;;7.65;4.63;;;20.80;82.60;;;;;;5012699;28;20653;-73